Lehman, Pennsylvania
Current Conditions -  °F | °C
As of 2:54 AM on Saturday 20 Dec 2014 (Local Time) from KAVP Reporting Station
Overcast Overcast  
Wind Chill: 20°   Ceiling: 1800
Heat Index: 29°   Visibility: 10mi
Dew Point: 20°   Wind: 9mph
Humidity: 69%   Direction: 360°N
Pressure: 30.17"   Gusts: NA
Location:  41.31°N, 76.02°W
Report Text: KAVP 200754Z AUTO 36008KT 10SM OVC018 M02/M07 A3017 RMK AO2 SLP227 T10171067
Loading
Personal Weather Stations






























Interactive Weather Map New forecast layout! Learn more

10-Day Weather Forecast

Advertisements
Track Severe Weather on mobile